createdAt,value
2019-02-28T00:01:05.782Z,90.72
2019-02-28T00:02:14.215Z,88.05
2019-02-28T00:03:32.826Z,92.02
2019-02-28T00:04:38.817Z,87.62
2019-02-28T00:06:04.080Z,87.30
2019-02-28T00:07:15.342Z,88.70
2019-02-28T00:08:15.557Z,85.83
2019-02-28T00:09:25.702Z,92.08
2019-02-28T00:10:34.316Z,83.67
2019-02-28T00:11:44.459Z,86.97
2019-02-28T00:12:55.061Z,89.28
2019-02-28T00:15:29.630Z,85.53
2019-02-28T00:20:50.040Z,94.00
2019-02-28T00:23:32.073Z,93.10
2019-02-28T00:24:38.729Z,90.10
2019-02-28T00:25:48.854Z,92.33
2019-02-28T00:27:04.476Z,94.35
2019-02-28T00:28:14.726Z,93.27
2019-02-28T00:29:24.103Z,87.45
2019-02-28T00:30:37.374Z,95.07
2019-02-28T00:31:54.117Z,87.33
2019-02-28T00:33:17.556Z,93.85
2019-02-28T00:34:57.344Z,92.90
2019-02-28T00:36:04.131Z,93.62
2019-02-28T00:38:52.811Z,96.65
2019-02-28T00:40:38.537Z,93.25
2019-02-28T00:44:47.731Z,93.27
2019-02-28T00:47:38.495Z,91.78
2019-02-28T00:49:03.471Z,90.50
2019-02-28T00:50:06.813Z,88.90
2019-02-28T00:51:17.159Z,94.77
2019-02-28T00:53:38.228Z,89.35
2019-02-28T00:54:47.797Z,92.75
2019-02-28T00:56:00.988Z,86.92
2019-02-28T00:57:23.698Z,92.65
2019-02-28T00:58:22.945Z,88.60
2019-02-28T00:59:41.961Z,88.58
2019-02-28T01:00:53.635Z,86.45
2019-02-28T01:02:02.662Z,87.78
2019-02-28T01:03:08.631Z,78.83
2019-02-28T01:04:14.085Z,86.85
2019-02-28T01:05:20.249Z,85.20
2019-02-28T01:06:30.935Z,86.00
2019-02-28T01:07:41.496Z,88.33
2019-02-28T01:08:49.132Z,83.52
2019-02-28T01:10:05.987Z,92.78
2019-02-28T01:11:20.023Z,77.78
2019-02-28T01:12:44.606Z,79.30
2019-02-28T01:13:52.813Z,78.90
2019-02-28T01:14:57.694Z,81.55
2019-02-28T01:16:04.590Z,87.57
2019-02-28T01:17:12.369Z,83.03
2019-02-28T01:18:24.731Z,82.30
2019-02-28T01:19:41.318Z,88.00
2019-02-28T01:20:51.524Z,82.27
2019-02-28T01:21:58.009Z,80.90
2019-02-28T01:23:04.736Z,82.42
2019-02-28T01:24:12.487Z,83.55
2019-02-28T01:25:21.228Z,78.10
2019-02-28T01:26:27.580Z,75.00
2019-02-28T01:27:33.912Z,83.12
2019-02-28T01:29:02.843Z,76.45
2019-02-28T01:30:06.565Z,77.75
2019-02-28T01:31:15.140Z,82.15
2019-02-28T01:32:25.340Z,78.70
2019-02-28T01:33:36.153Z,82.92
2019-02-28T01:35:09.753Z,84.85
2019-02-28T01:36:06.403Z,78.52
2019-02-28T01:37:20.889Z,79.62
2019-02-28T01:38:32.838Z,80.15
2019-02-28T01:40:56.460Z,80.97
2019-02-28T01:42:11.076Z,83.33
2019-02-28T01:43:33.200Z,79.17
2019-02-28T01:44:36.525Z,77.22
2019-02-28T01:45:51.400Z,77.53
2019-02-28T01:46:53.885Z,74.58
2019-02-28T01:48:22.856Z,82.70
2019-02-28T01:57:50.667Z,82.47
2019-02-28T01:58:16.773Z,76.75
2019-02-28T01:58:56.498Z,76.97
2019-02-28T02:00:09.823Z,75.90
2019-02-28T02:01:15.475Z,75.47
2019-02-28T02:02:24.784Z,70.75
2019-02-28T02:03:32.676Z,77.00
2019-02-28T02:04:43.170Z,76.72
2019-02-28T02:05:51.666Z,80.50
2019-02-28T02:07:01.996Z,74.82
2019-02-28T02:08:10.082Z,74.12
2019-02-28T02:09:19.310Z,80.38
2019-02-28T02:10:42.135Z,77.82
2019-02-28T02:11:53.808Z,75.40
2019-02-28T02:14:13.469Z,70.75
2019-02-28T02:16:23.650Z,76.75
2019-02-28T02:16:27.836Z,77.00
2019-02-28T02:17:35.464Z,71.67
2019-02-28T02:18:47.328Z,76.40
2019-02-28T02:20:10.586Z,74.22
2019-02-28T02:23:54.837Z,73.97
2019-02-28T02:25:03.152Z,74.12
2019-02-28T02:26:16.458Z,73.17
2019-02-28T02:28:45.522Z,71.53
2019-02-28T02:29:49.420Z,71.55
2019-02-28T02:30:59.157Z,68.10
2019-02-28T02:32:04.147Z,71.22
2019-02-28T02:33:14.443Z,72.42
2019-02-28T02:34:28.246Z,69.82
2019-02-28T02:35:42.214Z,72.95
2019-02-28T02:38:30.337Z,69.67
2019-02-28T02:38:43.131Z,73.22
2019-02-28T02:39:41.911Z,68.95
2019-02-28T02:48:31.809Z,67.17
2019-02-28T02:52:13.947Z,62.62
2019-02-28T02:52:37.205Z,64.75
2019-02-28T02:54:06.085Z,65.72
2019-02-28T02:59:23.920Z,67.92
2019-02-28T03:02:43.288Z,68.57
2019-02-28T03:04:16.760Z,69.17
2019-02-28T03:44:10.939Z,54.77
2019-02-28T03:45:02.421Z,61.30
2019-02-28T03:46:15.045Z,57.65
2019-02-28T03:47:24.228Z,61.08
2019-02-28T03:48:43.042Z,63.98
2019-02-28T03:49:50.254Z,62.38
2019-02-28T03:51:13.855Z,64.27
2019-02-28T03:59:40.149Z,59.13
2019-02-28T04:02:39.563Z,59.05
2019-02-28T04:03:41.169Z,57.58
2019-02-28T04:04:55.766Z,59.27
2019-02-28T04:07:52.200Z,49.58
2019-02-28T04:12:58.660Z,53.40
2019-02-28T04:13:25.623Z,55.80
2019-02-28T04:15:27.454Z,55.43
2019-02-28T04:16:09.052Z,53.90
2019-02-28T04:17:11.307Z,56.33
2019-02-28T04:18:36.221Z,53.52
2019-02-28T04:19:44.404Z,56.37
2019-02-28T04:21:00.275Z,55.10
2019-02-28T04:22:10.946Z,56.95
2019-02-28T04:23:24.747Z,54.77
2019-02-28T04:26:24.866Z,55.28
2019-02-28T04:27:07.004Z,53.90
2019-02-28T04:29:01.239Z,55.20
2019-02-28T04:29:31.132Z,48.98
2019-02-28T04:32:30.035Z,52.73
2019-02-28T04:33:29.219Z,57.23
2019-02-28T04:36:00.356Z,49.50
2019-02-28T04:37:15.126Z,52.08
2019-02-28T04:41:50.683Z,51.48
2019-02-28T04:43:27.268Z,54.20
2019-02-28T04:44:32.390Z,51.60
2019-02-28T04:45:35.323Z,49.27
2019-02-28T04:46:39.621Z,51.53
2019-02-28T04:47:45.178Z,50.75
2019-02-28T04:49:03.656Z,53.48
2019-02-28T04:51:50.232Z,50.83
2019-02-28T04:53:12.914Z,51.50
2019-02-28T05:06:04.491Z,51.85
2019-02-28T05:07:14.212Z,50.50
2019-02-28T05:08:24.872Z,55.15
2019-02-28T05:09:35.627Z,52.05
2019-02-28T05:10:56.028Z,54.65
2019-02-28T05:12:06.019Z,51.30
2019-02-28T05:13:17.613Z,54.35
2019-02-28T05:14:27.687Z,55.92
2019-02-28T05:30:50.215Z,54.65
2019-02-28T05:32:57.813Z,54.15
2019-02-28T05:33:33.637Z,53.48
2019-02-28T05:45:48.687Z,55.60
2019-02-28T05:47:00.465Z,56.08
2019-02-28T05:48:27.556Z,49.73
2019-02-28T05:50:26.894Z,48.80
2019-02-28T05:51:44.619Z,49.00
2019-02-28T05:54:34.887Z,49.58
2019-02-28T05:57:13.973Z,52.10
2019-02-28T05:58:43.949Z,46.85
2019-02-28T05:59:45.219Z,48.35
2019-02-28T06:01:20.020Z,52.08
2019-02-28T06:02:26.753Z,48.35
2019-02-28T06:03:38.501Z,52.48
2019-02-28T06:04:40.783Z,48.83
2019-02-28T06:06:03.863Z,45.40
2019-02-28T06:07:32.777Z,55.38
2019-02-28T06:09:05.599Z,50.03
2019-02-28T06:09:59.973Z,52.93
2019-02-28T06:12:26.653Z,53.55
2019-02-28T06:13:33.330Z,46.08
2019-02-28T06:20:58.864Z,48.87
2019-02-28T06:22:15.171Z,52.10
2019-02-28T06:23:48.958Z,48.05
2019-02-28T06:41:24.636Z,46.05
2019-02-28T06:42:27.590Z,42.58
2019-02-28T07:00:35.178Z,43.92
2019-02-28T07:08:14.383Z,42.23
2019-02-28T08:01:37.425Z,44.25
2019-02-28T08:02:46.457Z,44.93
2019-02-28T08:04:18.101Z,40.58
2019-02-28T08:05:29.824Z,39.75
2019-02-28T08:06:31.420Z,42.20
2019-02-28T08:07:38.618Z,45.15
2019-02-28T08:08:49.698Z,44.88
2019-02-28T08:09:55.482Z,43.95
2019-02-28T08:11:04.401Z,41.08
2019-02-28T08:12:13.831Z,42.30
2019-02-28T08:13:22.141Z,42.73
2019-02-28T08:14:28.183Z,42.62
2019-02-28T08:15:38.465Z,43.08
2019-02-28T08:19:22.737Z,47.75
2019-02-28T08:20:45.526Z,43.45
2019-02-28T08:21:54.448Z,48.95
2019-02-28T08:23:03.060Z,46.35
2019-02-28T08:24:13.030Z,46.50
2019-02-28T08:25:36.111Z,48.37
2019-02-28T08:26:30.010Z,50.03
2019-02-28T08:27:38.456Z,46.90
2019-02-28T08:28:53.327Z,47.05
2019-02-28T08:29:55.272Z,48.10
2019-02-28T08:31:01.589Z,46.85
2019-02-28T08:32:10.965Z,45.95
2019-02-28T08:33:22.184Z,47.70
2019-02-28T08:34:27.718Z,50.38
2019-02-28T08:35:37.623Z,44.50
2019-02-28T08:36:51.283Z,53.10
2019-02-28T08:38:00.899Z,54.30
2019-02-28T08:39:16.216Z,49.45
2019-02-28T08:40:26.792Z,50.73
2019-02-28T08:41:34.844Z,49.05
2019-02-28T08:42:44.970Z,47.30
2019-02-28T08:43:52.241Z,46.28
2019-02-28T08:45:25.730Z,45.35
2019-02-28T08:46:35.595Z,49.75
2019-02-28T08:47:55.245Z,45.60
2019-02-28T08:48:54.903Z,51.58
2019-02-28T08:50:04.514Z,52.50
2019-02-28T08:51:14.451Z,47.43
2019-02-28T08:52:22.915Z,49.83
2019-02-28T08:53:50.760Z,46.63
2019-02-28T08:54:55.530Z,48.05
2019-02-28T08:56:03.388Z,47.40
2019-02-28T08:57:09.595Z,45.33
2019-02-28T08:58:19.688Z,51.55
2019-02-28T08:59:29.139Z,47.73
2019-02-28T09:00:37.639Z,45.90
2019-02-28T09:01:45.929Z,45.40
2019-02-28T09:02:57.927Z,45.75
2019-02-28T09:04:11.029Z,45.92
2019-02-28T09:05:25.959Z,44.10
2019-02-28T09:06:37.872Z,48.70
2019-02-28T09:07:50.800Z,48.13
2019-02-28T09:08:56.685Z,45.52
2019-02-28T09:10:11.820Z,50.63
2019-02-28T09:11:14.794Z,47.83
2019-02-28T09:12:34.873Z,48.02
2019-02-28T09:13:39.994Z,47.95
2019-02-28T09:15:52.999Z,47.80
2019-02-28T09:17:09.587Z,46.13
2019-02-28T09:18:46.602Z,44.55
2019-02-28T09:20:02.012Z,51.70
2019-02-28T09:21:15.357Z,47.30
2019-02-28T09:23:37.571Z,49.93
2019-02-28T09:25:11.487Z,48.28
2019-02-28T09:26:23.054Z,47.15
2019-02-28T09:27:35.148Z,50.50
2019-02-28T09:28:39.607Z,48.87
2019-02-28T09:29:46.452Z,48.78
2019-02-28T09:31:01.283Z,45.60
2019-02-28T09:32:10.295Z,47.55
2019-02-28T09:33:19.370Z,50.73
2019-02-28T09:34:25.914Z,46.85
2019-02-28T09:35:36.289Z,51.40
2019-02-28T09:38:13.871Z,51.10
2019-02-28T09:41:04.574Z,53.10
2019-02-28T09:43:47.302Z,50.33
2019-02-28T09:44:55.762Z,47.95
2019-02-28T09:46:03.578Z,52.15
2019-02-28T09:47:26.652Z,55.25
2019-02-28T09:48:37.279Z,50.17
2019-02-28T09:49:44.306Z,50.48
2019-02-28T09:50:58.325Z,53.08
2019-02-28T09:52:15.561Z,55.38
2019-02-28T09:53:32.375Z,47.30
2019-02-28T09:54:38.467Z,54.33
2019-02-28T09:55:52.994Z,48.95
2019-02-28T09:57:22.920Z,53.83
2019-02-28T09:58:37.710Z,55.20
2019-02-28T09:59:43.964Z,49.05
2019-02-28T10:00:51.222Z,46.77
2019-02-28T10:02:01.803Z,54.63
2019-02-28T10:03:07.996Z,53.13
2019-02-28T10:04:12.809Z,51.15
2019-02-28T10:08:52.755Z,55.10
2019-02-28T10:09:57.314Z,54.98
2019-02-28T10:11:02.321Z,54.65
2019-02-28T10:12:11.015Z,56.75
2019-02-28T10:13:18.303Z,53.30
2019-02-28T10:20:34.872Z,50.65
2019-02-28T10:21:39.692Z,51.42
2019-02-28T10:22:47.317Z,50.00
2019-02-28T10:23:56.852Z,54.77
2019-02-28T10:25:08.872Z,52.23
2019-02-28T10:26:17.298Z,51.10
2019-02-28T10:27:23.352Z,54.67
2019-02-28T10:28:37.729Z,51.05
2019-02-28T10:29:45.898Z,54.67
2019-02-28T10:30:50.856Z,55.65
2019-02-28T10:32:08.924Z,53.13
2019-02-28T10:33:06.774Z,52.15
2019-02-28T10:34:16.737Z,52.23
2019-02-28T10:35:21.924Z,56.42
2019-02-28T10:36:27.545Z,53.48
2019-02-28T10:37:36.682Z,54.75
2019-02-28T10:38:45.014Z,63.70
2019-02-28T10:39:51.545Z,58.15
2019-02-28T10:40:57.815Z,58.87
2019-02-28T10:42:06.840Z,59.33
2019-02-28T10:43:15.624Z,54.67
2019-02-28T10:44:22.064Z,54.15
2019-02-28T10:45:28.666Z,53.95
2019-02-28T10:46:35.993Z,59.33
2019-02-28T10:47:41.754Z,56.77
2019-02-28T10:48:50.961Z,57.80
2019-02-28T10:50:01.018Z,56.98
2019-02-28T10:51:13.969Z,57.40
2019-02-28T10:52:19.158Z,55.08
2019-02-28T10:53:24.568Z,52.15
2019-02-28T10:54:39.081Z,53.70
2019-02-28T10:55:43.560Z,57.80
2019-02-28T10:56:56.507Z,54.18
2019-02-28T10:58:04.861Z,53.80
2019-02-28T10:59:11.727Z,54.80
2019-02-28T11:00:29.521Z,51.77
2019-02-28T11:01:41.787Z,50.05
2019-02-28T11:02:45.835Z,54.03
2019-02-28T11:05:23.610Z,48.92
2019-02-28T11:06:29.706Z,48.42
2019-02-28T11:09:09.497Z,51.33
2019-02-28T11:10:28.844Z,49.90
2019-02-28T11:11:42.440Z,49.63
2019-02-28T11:12:54.356Z,52.40
2019-02-28T11:15:41.442Z,49.70
2019-02-28T11:16:59.157Z,55.00
2019-02-28T11:18:21.662Z,52.00
2019-02-28T11:19:32.786Z,53.38
2019-02-28T11:20:42.367Z,55.90
2019-02-28T11:22:05.805Z,56.48
2019-02-28T11:23:34.629Z,50.03
2019-02-28T11:24:23.672Z,53.87
2019-02-28T11:27:03.837Z,58.23
2019-02-28T11:28:32.144Z,59.50
2019-02-28T11:29:56.753Z,56.20
2019-02-28T11:31:07.454Z,61.28
2019-02-28T11:32:19.650Z,56.45
2019-02-28T11:34:51.947Z,54.80
2019-02-28T11:35:57.878Z,59.00
2019-02-28T11:39:38.310Z,59.27
2019-02-28T11:40:44.620Z,55.50
2019-02-28T11:41:53.526Z,61.25
2019-02-28T11:43:03.946Z,56.45
2019-02-28T11:44:12.011Z,59.03
2019-02-28T11:45:36.288Z,57.98
2019-02-28T11:46:36.715Z,56.73
2019-02-28T11:47:51.710Z,53.00
2019-02-28T11:48:53.947Z,56.40
2019-02-28T11:50:00.337Z,60.03
2019-02-28T11:51:07.409Z,58.40
2019-02-28T11:56:34.727Z,53.98
2019-02-28T11:57:42.122Z,62.95
2019-02-28T11:58:51.693Z,63.30
2019-02-28T12:00:01.519Z,58.75
2019-02-28T12:02:33.676Z,65.95
2019-02-28T12:03:47.374Z,59.33
2019-02-28T12:04:57.999Z,63.75
2019-02-28T12:06:07.076Z,60.25
2019-02-28T12:07:12.326Z,61.33
2019-02-28T12:08:22.841Z,55.83
2019-02-28T12:09:32.778Z,62.17
2019-02-28T12:10:49.779Z,58.17
2019-02-28T12:11:59.006Z,61.98
2019-02-28T12:13:06.900Z,57.33
2019-02-28T12:14:14.544Z,56.55
2019-02-28T12:15:41.601Z,59.83
2019-02-28T12:16:52.631Z,57.05
2019-02-28T12:18:03.900Z,56.25
2019-02-28T12:19:15.804Z,63.60
2019-02-28T12:20:25.874Z,61.40
2019-02-28T12:21:29.463Z,61.02
2019-02-28T12:22:49.134Z,61.35
2019-02-28T12:27:16.108Z,59.13
2019-02-28T12:33:23.322Z,52.30
2019-02-28T12:34:09.840Z,57.83
2019-02-28T12:35:42.299Z,54.67
2019-02-28T12:39:40.442Z,54.85
2019-02-28T12:40:57.866Z,53.25
2019-02-28T12:43:48.506Z,54.55
2019-02-28T12:51:07.877Z,55.95
2019-02-28T12:58:48.263Z,54.45
2019-02-28T12:59:35.753Z,48.83
2019-02-28T13:01:58.489Z,50.65
2019-02-28T13:07:38.851Z,54.90
2019-02-28T13:09:01.684Z,50.78
2019-02-28T13:10:16.997Z,51.05
2019-02-28T13:11:35.755Z,52.78
2019-02-28T13:13:14.557Z,57.05
2019-02-28T13:28:04.938Z,53.25
2019-02-28T13:49:46.637Z,66.92
2019-02-28T13:51:02.366Z,65.72
2019-02-28T13:53:53.503Z,68.95
2019-02-28T13:55:31.109Z,65.50
2019-02-28T14:01:22.337Z,65.55
2019-02-28T14:02:40.572Z,65.55
2019-02-28T14:04:07.421Z,64.30
2019-02-28T14:06:44.834Z,59.90
2019-02-28T15:24:32.808Z,64.62
2019-02-28T15:31:33.173Z,69.03
2019-02-28T15:32:37.851Z,69.92
2019-02-28T15:33:50.457Z,75.75
2019-02-28T15:35:12.462Z,73.87
2019-02-28T15:38:16.676Z,65.87
2019-02-28T15:42:13.039Z,68.33
2019-02-28T15:44:10.878Z,71.90
2019-02-28T15:44:46.404Z,70.90
2019-02-28T15:47:29.870Z,65.72
2019-02-28T15:50:16.403Z,67.60
2019-02-28T15:51:39.155Z,66.60
2019-02-28T15:52:36.736Z,70.10
2019-02-28T15:53:53.464Z,65.60
2019-02-28T15:55:15.300Z,70.37
2019-02-28T15:56:42.556Z,67.42
2019-02-28T16:05:31.916Z,70.57
2019-02-28T16:07:21.486Z,67.07
2019-02-28T16:14:23.079Z,61.40
2019-02-28T16:14:35.822Z,69.72
2019-02-28T16:15:26.431Z,62.35
2019-02-28T16:18:36.036Z,67.67
2019-02-28T16:22:14.644Z,63.23
2019-02-28T16:23:31.439Z,70.42
2019-02-28T16:24:42.315Z,69.40
2019-02-28T16:25:50.081Z,60.15
2019-02-28T16:26:58.898Z,64.55
2019-02-28T16:28:16.719Z,64.47
2019-02-28T16:29:27.243Z,65.15
2019-02-28T16:30:42.234Z,66.12
2019-02-28T16:31:57.287Z,67.67
2019-02-28T16:33:24.770Z,62.88
2019-02-28T16:34:11.720Z,64.25
2019-02-28T16:35:20.312Z,63.52
2019-02-28T16:36:30.728Z,65.08
2019-02-28T16:39:17.042Z,63.73
2019-02-28T16:42:29.206Z,63.87
2019-02-28T16:43:34.331Z,69.07
2019-02-28T16:45:02.599Z,64.53
2019-02-28T16:53:07.599Z,65.47
2019-02-28T16:56:02.707Z,62.45
2019-02-28T16:59:54.719Z,71.02
2019-02-28T17:00:53.127Z,65.67
2019-02-28T17:01:11.265Z,70.87
2019-02-28T17:03:44.133Z,64.75
2019-02-28T17:05:01.878Z,63.05
2019-02-28T17:06:11.786Z,68.25
2019-02-28T17:07:30.617Z,63.85
2019-02-28T17:08:44.549Z,66.85
2019-02-28T17:10:58.582Z,72.87
2019-02-28T17:12:05.296Z,74.27
2019-02-28T17:13:40.270Z,72.78
2019-02-28T17:14:38.049Z,69.32
2019-02-28T17:15:48.039Z,67.80
2019-02-28T17:17:03.258Z,70.20
2019-02-28T17:18:30.584Z,63.98
2019-02-28T17:20:07.478Z,67.65
2019-02-28T17:21:05.486Z,68.12
2019-02-28T17:22:23.735Z,68.62
2019-02-28T17:23:33.772Z,66.05
2019-02-28T17:24:59.747Z,69.58
2019-02-28T17:28:43.366Z,70.08
2019-02-28T17:30:14.405Z,64.30
2019-02-28T17:32:20.888Z,69.70
2019-02-28T17:32:44.317Z,61.95
2019-02-28T17:34:27.502Z,62.93
2019-02-28T17:35:27.747Z,64.12
2019-02-28T17:36:39.331Z,66.17
2019-02-28T17:37:48.678Z,69.42
2019-02-28T17:39:07.767Z,67.42
2019-02-28T17:40:17.843Z,64.50
2019-02-28T17:41:41.811Z,71.85
2019-02-28T17:43:25.543Z,65.85
2019-02-28T17:44:37.502Z,62.17
2019-02-28T17:45:50.621Z,65.15
2019-02-28T17:47:05.141Z,63.85
2019-02-28T17:48:52.571Z,63.92
2019-02-28T17:50:42.764Z,62.30
2019-02-28T17:54:20.443Z,61.08
2019-02-28T18:03:39.769Z,64.40
2019-02-28T18:05:15.117Z,69.58
2019-02-28T18:09:05.994Z,62.25
2019-02-28T18:10:30.197Z,68.30
2019-02-28T18:13:26.575Z,76.57
2019-02-28T18:15:12.164Z,77.85
2019-02-28T18:17:09.439Z,72.95
2019-02-28T18:18:35.325Z,69.53
2019-02-28T18:26:47.306Z,76.37
2019-02-28T18:28:00.263Z,73.85
2019-02-28T18:29:23.769Z,67.10
2019-02-28T18:30:49.988Z,75.10
2019-02-28T18:32:02.309Z,74.77
2019-02-28T18:33:21.482Z,76.42
2019-02-28T18:34:26.805Z,78.78
2019-02-28T18:35:36.040Z,73.95
2019-02-28T18:37:16.801Z,74.80
2019-02-28T18:38:04.512Z,76.53
2019-02-28T18:40:59.667Z,70.75
2019-02-28T18:44:32.369Z,74.92
2019-02-28T18:45:53.622Z,72.70
2019-02-28T18:47:21.311Z,73.97
2019-02-28T18:48:42.240Z,75.32
2019-02-28T18:57:23.632Z,78.62
2019-02-28T18:58:37.789Z,76.55
2019-02-28T18:59:46.838Z,72.08
2019-02-28T19:01:02.068Z,74.67
2019-02-28T19:02:17.123Z,74.55
2019-02-28T19:03:40.832Z,79.45
2019-02-28T19:05:06.820Z,84.42
2019-02-28T19:06:23.403Z,74.45
2019-02-28T19:09:14.097Z,70.52
2019-02-28T19:10:22.653Z,73.67
2019-02-28T19:11:48.950Z,82.42
2019-02-28T19:12:49.771Z,76.97
2019-02-28T19:16:06.887Z,74.35
2019-02-28T19:17:22.148Z,67.20
2019-02-28T19:18:37.852Z,68.67
2019-02-28T19:19:52.308Z,66.37
2019-02-28T19:21:01.471Z,67.17
2019-02-28T19:22:16.283Z,65.10
2019-02-28T19:23:32.263Z,64.05
2019-02-28T19:24:35.031Z,62.30
2019-02-28T19:25:42.886Z,64.65
2019-02-28T19:26:58.518Z,66.15
2019-02-28T19:28:08.407Z,63.40
2019-02-28T19:29:19.261Z,64.80
2019-02-28T19:30:26.163Z,66.53
2019-02-28T19:33:19.656Z,61.63
2019-02-28T19:34:29.158Z,67.87
2019-02-28T19:35:49.947Z,65.95
2019-02-28T19:38:04.566Z,65.37
2019-02-28T19:43:10.401Z,45.48
2019-02-28T19:44:22.279Z,35.73
2019-02-28T19:45:33.501Z,35.50
2019-02-28T19:46:53.340Z,35.17
2019-02-28T19:48:00.005Z,30.80
2019-02-28T19:50:48.373Z,17.67
2019-02-28T19:57:01.422Z,12.73
2019-02-28T19:58:07.467Z,10.13
2019-02-28T20:02:39.370Z,9.08
2019-02-28T20:03:45.330Z,11.35
2019-02-28T20:04:51.603Z,9.25
2019-02-28T20:06:00.211Z,8.83
2019-02-28T20:07:12.099Z,8.50
2019-02-28T20:08:15.407Z,6.58
2019-02-28T20:09:24.294Z,7.60
2019-02-28T20:10:35.358Z,8.68
2019-02-28T20:11:47.364Z,10.15
2019-02-28T20:13:01.290Z,12.37
2019-02-28T20:14:09.150Z,10.05
2019-02-28T20:15:17.166Z,7.03
2019-02-28T20:16:23.479Z,9.85
2019-02-28T20:17:38.951Z,11.12
2019-02-28T20:18:51.977Z,17.57
2019-02-28T20:19:55.691Z,12.20
2019-02-28T20:21:05.247Z,12.60
2019-02-28T20:23:35.341Z,9.75
2019-02-28T20:26:08.851Z,8.65
2019-02-28T20:29:43.342Z,8.43
2019-02-28T20:30:56.418Z,7.50
2019-02-28T20:32:11.319Z,6.75
2019-02-28T20:33:25.971Z,6.78
2019-02-28T20:36:10.760Z,5.25
2019-02-28T20:38:45.813Z,5.60
2019-02-28T20:41:00.821Z,6.00
2019-02-28T20:41:23.973Z,7.17
2019-02-28T20:42:46.424Z,5.78
2019-02-28T20:43:56.674Z,5.87
2019-02-28T20:45:08.984Z,7.50
2019-02-28T20:46:19.939Z,5.67
2019-02-28T20:47:38.584Z,8.05
2019-02-28T20:48:51.671Z,5.28
2019-02-28T20:50:39.611Z,5.05
2019-02-28T20:51:57.220Z,5.80
2019-02-28T20:53:39.408Z,7.78
2019-02-28T20:54:49.199Z,7.87
2019-02-28T20:57:42.413Z,5.50
2019-02-28T20:58:57.874Z,6.17
2019-02-28T21:00:36.185Z,7.40
2019-02-28T21:01:48.691Z,5.97
2019-02-28T21:02:58.855Z,5.75
2019-02-28T21:21:47.532Z,6.47
2019-02-28T21:24:28.678Z,6.80
2019-02-28T21:25:35.376Z,5.65
2019-02-28T21:28:36.082Z,7.37
2019-02-28T21:30:13.198Z,7.12
2019-02-28T21:30:57.460Z,6.15
2019-02-28T21:32:22.337Z,7.03
2019-02-28T21:33:38.778Z,6.53
2019-02-28T21:35:07.148Z,7.85
2019-02-28T21:37:43.493Z,6.87
2019-02-28T21:48:12.645Z,8.08
2019-02-28T21:48:22.197Z,9.00
2019-02-28T22:01:48.984Z,10.15
2019-02-28T22:03:11.552Z,10.53
2019-02-28T22:04:29.244Z,12.88
2019-02-28T22:05:36.591Z,15.75
2019-02-28T22:06:42.210Z,14.47
2019-02-28T22:08:07.311Z,14.87
2019-02-28T22:09:44.827Z,14.43
2019-02-28T22:10:35.074Z,13.72
2019-02-28T22:11:57.093Z,17.10
2019-02-28T22:13:40.466Z,16.12
2019-02-28T22:14:20.353Z,19.15
2019-02-28T22:23:03.762Z,33.58
2019-02-28T22:24:18.308Z,36.13
2019-02-28T22:25:45.872Z,34.45
2019-02-28T22:27:03.018Z,34.50
2019-02-28T22:28:18.871Z,43.23
2019-02-28T22:32:27.195Z,49.55
2019-02-28T22:34:04.532Z,59.40
2019-02-28T22:35:19.420Z,58.17
2019-02-28T22:36:48.988Z,59.03
2019-02-28T22:38:10.587Z,63.90
2019-02-28T22:39:40.045Z,65.45
2019-02-28T22:42:43.714Z,74.35
2019-02-28T22:44:16.014Z,67.10
2019-02-28T22:45:00.495Z,70.08
2019-02-28T22:49:24.201Z,75.50
2019-02-28T22:51:04.583Z,72.75
2019-02-28T22:52:35.705Z,82.37
2019-02-28T22:53:57.302Z,79.62
2019-02-28T22:57:15.107Z,76.00
2019-02-28T22:59:21.225Z,75.57
2019-02-28T23:02:28.938Z,75.08
2019-02-28T23:03:39.373Z,77.10
2019-02-28T23:05:35.149Z,73.52
2019-02-28T23:06:08.019Z,80.30
2019-02-28T23:10:11.735Z,74.62
2019-02-28T23:14:01.542Z,79.53
2019-02-28T23:15:07.573Z,71.72
2019-02-28T23:21:01.978Z,76.28
2019-02-28T23:23:42.722Z,81.57
2019-02-28T23:24:46.036Z,80.03
2019-02-28T23:26:05.825Z,76.00
2019-02-28T23:31:12.131Z,83.22
2019-02-28T23:32:59.418Z,76.42
2019-02-28T23:35:43.853Z,79.53
2019-02-28T23:36:54.691Z,77.85
2019-02-28T23:38:05.700Z,79.35
2019-02-28T23:39:13.004Z,80.97
2019-02-28T23:40:20.921Z,77.15
2019-02-28T23:41:36.294Z,73.65
2019-02-28T23:42:43.614Z,82.65
2019-02-28T23:44:05.119Z,74.58
2019-02-28T23:44:59.972Z,82.57
2019-02-28T23:46:19.564Z,84.92
2019-02-28T23:47:24.433Z,81.28
2019-02-28T23:49:44.431Z,79.60
2019-02-28T23:51:03.383Z,83.40
2019-02-28T23:52:06.155Z,83.75
2019-02-28T23:53:12.249Z,84.47
2019-02-28T23:54:36.128Z,81.87
2019-02-28T23:55:43.798Z,80.45
2019-02-28T23:57:00.645Z,81.95
2019-02-28T23:58:18.265Z,78.07
2019-02-28T23:59:29.690Z,89.83
